createdAt,value
2023-04-11T00:00:58.721Z,8.00
2023-04-11T00:03:25.928Z,8.00
2023-04-11T00:05:53.037Z,8.00
2023-04-11T00:08:21.167Z,8.00
2023-04-11T00:10:48.068Z,8.00
2023-04-11T00:13:15.033Z,8.00
2023-04-11T00:15:41.899Z,8.00
2023-04-11T00:18:08.996Z,8.00
2023-04-11T00:20:35.916Z,8.00
2023-04-11T00:23:02.936Z,8.00
2023-04-11T00:25:30.334Z,8.00
2023-04-11T00:27:58.362Z,8.00
2023-04-11T00:30:25.275Z,8.00
2023-04-11T00:32:52.202Z,8.00
2023-04-11T00:35:19.390Z,8.00
2023-04-11T00:37:46.941Z,8.00
2023-04-11T00:40:17.340Z,8.00
2023-04-11T00:42:44.303Z,8.00
2023-04-11T00:45:12.359Z,8.10
2023-04-11T00:47:40.551Z,8.10
2023-04-11T00:50:09.079Z,8.00
2023-04-11T00:52:38.538Z,7.90
2023-04-11T00:55:08.161Z,7.80
2023-04-11T00:57:35.558Z,7.80
2023-04-11T01:00:03.876Z,7.90
2023-04-11T01:02:31.288Z,7.90
2023-04-11T01:05:00.560Z,7.90
2023-04-11T01:07:32.069Z,7.90
2023-04-11T01:10:02.928Z,7.90
2023-04-11T01:12:30.817Z,7.90
2023-04-11T01:14:58.561Z,7.80
2023-04-11T01:17:25.989Z,7.80
2023-04-11T01:19:53.384Z,7.80
2023-04-11T01:22:25.713Z,7.80
2023-04-11T01:24:52.779Z,7.80
2023-04-11T01:27:20.206Z,7.90
2023-04-11T01:29:47.158Z,7.90
2023-04-11T01:32:14.147Z,7.90
2023-04-11T01:34:42.136Z,7.90
2023-04-11T01:37:09.601Z,7.80
2023-04-11T01:39:36.558Z,7.80
2023-04-11T01:42:05.728Z,7.80
2023-04-11T01:44:36.404Z,7.90
2023-04-11T01:47:03.983Z,7.90
2023-04-11T01:49:31.385Z,7.90
2023-04-11T01:51:58.306Z,7.90
2023-04-11T01:54:25.228Z,7.80
2023-04-11T01:56:52.269Z,7.60
2023-04-11T01:59:19.429Z,7.40
2023-04-11T02:01:46.450Z,7.40
2023-04-11T02:04:13.821Z,7.20
2023-04-11T02:06:41.020Z,7.10
2023-04-11T02:09:07.959Z,6.90
2023-04-11T02:11:35.286Z,6.80
2023-04-11T02:14:03.884Z,6.80
2023-04-11T02:16:30.823Z,6.70
2023-04-11T02:18:58.393Z,6.70
2023-04-11T02:21:25.565Z,6.70
2023-04-11T02:23:52.454Z,6.70
2023-04-11T02:26:19.426Z,6.70
2023-04-11T02:28:46.360Z,6.70
2023-04-11T02:31:13.322Z,6.60
2023-04-11T02:33:40.246Z,6.60
2023-04-11T02:36:07.570Z,6.60
2023-04-11T02:38:34.540Z,6.70
2023-04-11T02:41:01.921Z,6.70
2023-04-11T02:43:28.814Z,6.70
2023-04-11T02:46:05.578Z,6.70
2023-04-11T02:48:38.922Z,6.70
2023-04-11T02:51:06.452Z,6.70
2023-04-11T02:53:33.415Z,6.70
2023-04-11T02:56:00.514Z,6.70
2023-04-11T02:58:28.771Z,6.80
2023-04-11T03:00:56.148Z,6.80
2023-04-11T03:03:23.185Z,6.80
2023-04-11T03:05:50.204Z,6.80
2023-04-11T03:08:17.146Z,6.90
2023-04-11T03:10:44.080Z,6.90
2023-04-11T03:13:11.023Z,6.90
2023-04-11T03:15:38.071Z,6.90
2023-04-11T03:18:05.094Z,6.90
2023-04-11T03:20:32.068Z,6.90
2023-04-11T03:22:59.030Z,6.80
2023-04-11T03:25:26.238Z,6.80
2023-04-11T03:27:53.222Z,6.80
2023-04-11T03:30:20.376Z,6.80
2023-04-11T03:32:47.314Z,6.80
2023-04-11T03:35:14.828Z,6.80
2023-04-11T03:37:41.863Z,6.80
2023-04-11T03:40:09.802Z,6.80
2023-04-11T03:42:36.807Z,6.80
2023-04-11T03:45:04.540Z,6.80
2023-04-11T03:47:31.720Z,6.90
2023-04-11T03:50:00.047Z,6.90
2023-04-11T03:52:27.039Z,6.90
2023-04-11T03:54:53.920Z,6.90
2023-04-11T03:57:20.849Z,7.00
2023-04-11T03:59:47.836Z,7.00
2023-04-11T04:02:17.607Z,7.10
2023-04-11T04:04:54.748Z,7.10
2023-04-11T04:07:22.198Z,7.20
2023-04-11T04:09:49.490Z,7.20
2023-04-11T04:12:19.148Z,7.30
2023-04-11T04:14:47.445Z,7.30
2023-04-11T04:17:16.486Z,7.40
2023-04-11T04:19:44.225Z,7.40
2023-04-11T04:22:13.105Z,7.50
2023-04-11T04:24:46.101Z,7.50
2023-04-11T04:27:19.146Z,7.50
2023-04-11T04:29:48.443Z,7.50
2023-04-11T04:32:24.910Z,7.50
2023-04-11T04:34:56.139Z,7.40
2023-04-11T04:37:25.893Z,7.40
2023-04-11T04:39:56.103Z,7.40
2023-04-11T04:42:29.242Z,7.40
2023-04-11T04:44:57.268Z,7.40
2023-04-11T04:47:33.533Z,7.40
2023-04-11T04:50:00.869Z,7.30
2023-04-11T04:52:29.737Z,7.30
2023-04-11T04:54:58.905Z,7.30
2023-04-11T04:57:31.920Z,7.30
2023-04-11T04:59:59.530Z,7.30
2023-04-11T05:02:26.894Z,7.30
2023-04-11T05:04:54.911Z,7.30
2023-04-11T05:07:22.147Z,7.30
2023-04-11T05:09:50.193Z,7.40
2023-04-11T05:12:17.222Z,7.40
2023-04-11T05:14:44.097Z,7.40
2023-04-11T05:17:10.973Z,7.50
2023-04-11T05:19:37.908Z,7.50
2023-04-11T05:22:04.956Z,7.50
2023-04-11T05:24:32.126Z,7.60
2023-04-11T05:27:01.486Z,7.60
2023-04-11T05:29:29.870Z,7.70
2023-04-11T05:31:56.836Z,7.80
2023-04-11T05:34:23.837Z,7.90
2023-04-11T05:36:50.887Z,8.00
2023-04-11T05:39:17.775Z,8.00
2023-04-11T05:41:47.496Z,8.00
2023-04-11T05:44:14.457Z,8.00
2023-04-11T05:46:41.441Z,8.00
2023-04-11T05:49:08.327Z,8.00
2023-04-11T05:51:35.306Z,8.00
2023-04-11T05:54:02.207Z,7.90
2023-04-11T05:56:29.201Z,7.90
2023-04-11T05:58:56.499Z,7.90
2023-04-11T06:01:23.758Z,7.90
2023-04-11T06:03:50.884Z,7.80
2023-04-11T06:06:18.022Z,7.70
2023-04-11T06:08:45.267Z,7.40
2023-04-11T06:11:12.191Z,7.20
2023-04-11T06:13:39.142Z,7.00
2023-04-11T06:16:07.472Z,6.90
2023-04-11T06:18:34.444Z,6.80
2023-04-11T06:21:01.389Z,6.70
2023-04-11T06:23:28.310Z,6.70
2023-04-11T06:25:55.184Z,6.70
2023-04-11T06:28:22.218Z,6.60
2023-04-11T06:30:49.361Z,6.60
2023-04-11T06:33:16.413Z,6.50
2023-04-11T06:35:43.379Z,6.50
2023-04-11T06:38:10.325Z,6.50
2023-04-11T06:40:39.748Z,6.50
2023-04-11T06:43:06.675Z,6.40
2023-04-11T06:45:33.610Z,6.40
2023-04-11T06:48:05.001Z,6.30
2023-04-11T06:50:34.610Z,6.30
2023-04-11T06:53:04.136Z,6.20
2023-04-11T06:55:31.160Z,6.10
2023-04-11T06:57:58.589Z,6.20
2023-04-11T07:00:25.796Z,6.20
2023-04-11T07:02:53.157Z,6.20
2023-04-11T07:05:20.582Z,6.20
2023-04-11T07:07:47.816Z,6.30
2023-04-11T07:10:14.767Z,6.30
2023-04-11T07:12:41.660Z,6.40
2023-04-11T07:15:09.976Z,6.30
2023-04-11T07:17:37.009Z,6.40
2023-04-11T07:20:07.013Z,6.40
2023-04-11T07:22:34.132Z,6.50
2023-04-11T07:25:01.301Z,6.50
2023-04-11T07:27:28.712Z,6.50
2023-04-11T07:29:56.251Z,6.60
2023-04-11T07:32:23.447Z,6.60
2023-04-11T07:34:50.733Z,6.60
2023-04-11T07:37:18.013Z,6.60
2023-04-11T07:39:45.103Z,6.60
2023-04-11T07:42:12.131Z,6.60
2023-04-11T07:44:39.024Z,6.70
2023-04-11T07:47:05.993Z,6.60
2023-04-11T07:49:32.858Z,6.60
2023-04-11T07:51:59.757Z,6.70
2023-04-11T07:54:28.404Z,6.60
2023-04-11T07:56:56.773Z,6.60
2023-04-11T07:59:23.769Z,6.70
2023-04-11T08:03:41.251Z,6.80
2023-04-11T08:06:09.539Z,6.90
2023-04-11T08:08:36.433Z,7.10
2023-04-11T08:11:03.430Z,7.30
2023-04-11T08:13:30.502Z,7.50
2023-04-11T08:15:57.370Z,7.60
2023-04-11T08:18:24.353Z,7.80
2023-04-11T08:20:51.263Z,7.90
2023-04-11T08:23:19.596Z,8.00
2023-04-11T08:25:46.671Z,8.20
2023-04-11T08:28:15.033Z,8.30
2023-04-11T08:30:42.080Z,8.50
2023-04-11T08:33:10.006Z,8.70
2023-04-11T08:35:37.753Z,8.90
2023-04-11T08:38:04.702Z,9.20
2023-04-11T08:40:31.604Z,9.50
2023-04-11T08:43:00.580Z,9.80
2023-04-11T08:45:28.842Z,10.10
2023-04-11T08:47:55.831Z,9.80
2023-04-11T08:50:22.836Z,9.40
2023-04-11T08:52:52.981Z,9.00
2023-04-11T08:55:19.955Z,8.70
2023-04-11T08:57:46.909Z,8.80
2023-04-11T09:00:15.327Z,9.40
2023-04-11T09:03:02.239Z,10.80
2023-04-11T09:05:43.586Z,12.40
2023-04-11T09:08:14.514Z,13.20
2023-04-11T09:10:45.743Z,13.40
2023-04-11T09:13:26.561Z,12.80
2023-04-11T09:16:13.058Z,12.30
2023-04-11T09:18:46.905Z,11.10
2023-04-11T09:21:19.561Z,11.00
2023-04-11T09:23:46.617Z,10.80
2023-04-11T09:26:27.835Z,11.70
2023-04-11T09:28:54.983Z,13.60
2023-04-11T09:31:42.619Z,14.30
2023-04-11T09:34:13.023Z,14.60
2023-04-11T09:36:40.422Z,14.40
2023-04-11T09:39:20.521Z,14.40
2023-04-11T09:41:47.529Z,13.90
2023-04-11T09:44:14.526Z,14.40
2023-04-11T09:47:01.306Z,13.90
2023-04-11T09:49:29.764Z,14.30
2023-04-11T09:52:00.682Z,14.60
2023-04-11T09:54:28.697Z,14.00
2023-04-11T09:56:58.314Z,13.00
2023-04-11T09:59:27.849Z,12.10
2023-04-11T10:01:56.864Z,11.30
2023-04-11T10:04:23.967Z,10.70
2023-04-11T10:07:16.845Z,9.80
2023-04-11T10:09:47.658Z,8.60
2023-04-11T10:12:35.046Z,7.90
2023-04-11T10:15:09.176Z,8.50
2023-04-11T10:17:36.735Z,9.30
2023-04-11T10:20:38.293Z,9.10
2023-04-11T10:23:05.865Z,9.00
2023-04-11T10:26:01.165Z,8.50
2023-04-11T10:28:33.363Z,8.10
2023-04-11T10:31:08.805Z,8.30
2023-04-11T10:33:38.385Z,10.30
2023-04-11T10:36:12.274Z,11.40
2023-04-11T10:38:48.557Z,12.70
2023-04-11T10:41:34.127Z,14.60
2023-04-11T10:44:20.917Z,15.80
2023-04-11T10:46:55.690Z,15.90
2023-04-11T10:49:52.274Z,17.50
2023-04-11T10:52:24.108Z,18.70
2023-04-11T10:54:54.233Z,18.70
2023-04-11T10:57:22.645Z,18.70
2023-04-11T10:59:52.473Z,15.50
2023-04-11T11:02:21.621Z,16.50
2023-04-11T11:04:49.508Z,17.00
2023-04-11T11:07:17.235Z,16.90
2023-04-11T11:09:50.832Z,14.90
2023-04-11T11:12:17.784Z,13.70
2023-04-11T11:14:47.229Z,12.70
2023-04-11T11:17:16.866Z,12.60
2023-04-11T11:19:48.630Z,12.50
2023-04-11T11:22:26.519Z,12.20
2023-04-11T11:24:53.730Z,12.10
2023-04-11T11:27:23.955Z,11.90
2023-04-11T11:29:51.920Z,14.20
2023-04-11T11:32:32.478Z,16.50
2023-04-11T11:34:59.462Z,18.50
2023-04-11T11:37:26.928Z,17.60
2023-04-11T11:39:54.415Z,18.30
2023-04-11T11:42:21.762Z,16.90
2023-04-11T11:44:48.740Z,16.90
2023-04-11T11:47:15.814Z,17.90
2023-04-11T11:49:55.976Z,17.60
2023-04-11T11:52:41.553Z,18.50
2023-04-11T11:55:18.909Z,16.90
2023-04-11T11:57:50.538Z,17.90
2023-04-11T12:00:30.498Z,18.00
2023-04-11T12:02:59.787Z,18.50
2023-04-11T12:05:30.214Z,18.40
2023-04-11T12:08:05.845Z,19.00
2023-04-11T12:10:51.791Z,19.50
2023-04-11T12:13:21.043Z,21.50
2023-04-11T12:16:06.751Z,23.00
2023-04-11T12:18:35.642Z,22.30
2023-04-11T12:21:02.580Z,21.40
2023-04-11T12:23:29.508Z,19.20
2023-04-11T12:25:56.868Z,18.30
2023-04-11T12:28:23.809Z,16.80
2023-04-11T12:30:51.045Z,15.20
2023-04-11T12:33:18.725Z,14.10
2023-04-11T12:35:45.819Z,13.80
2023-04-11T12:38:14.985Z,14.20
2023-04-11T12:40:46.505Z,16.10
2023-04-11T12:43:13.493Z,16.00
2023-04-11T12:45:40.429Z,17.20
2023-04-11T12:48:08.261Z,18.00
2023-04-11T12:50:35.350Z,18.30
2023-04-11T12:53:02.277Z,18.80
2023-04-11T12:55:29.255Z,18.20
2023-04-11T12:57:56.283Z,16.30
2023-04-11T13:00:23.650Z,14.70
2023-04-11T13:02:50.918Z,13.40
2023-04-11T13:05:18.474Z,12.70
2023-04-11T13:07:46.501Z,12.30
2023-04-11T13:10:16.199Z,11.40
2023-04-11T13:12:45.811Z,9.60
2023-04-11T13:15:16.509Z,8.50
2023-04-11T13:17:43.899Z,8.20
2023-04-11T13:20:12.842Z,9.10
2023-04-11T13:22:42.337Z,9.40
2023-04-11T13:25:11.959Z,10.70
2023-04-11T13:27:41.751Z,13.10
2023-04-11T13:30:10.508Z,13.70
2023-04-11T13:32:37.620Z,13.40
2023-04-11T13:35:05.792Z,13.40
2023-04-11T13:37:32.856Z,13.70
2023-04-11T13:39:59.767Z,15.50
2023-04-11T13:42:27.395Z,16.70
2023-04-11T13:44:54.333Z,16.60
2023-04-11T13:47:21.369Z,17.90
2023-04-11T13:49:48.354Z,19.80
2023-04-11T13:52:15.485Z,19.20
2023-04-11T13:54:42.493Z,19.20
2023-04-11T13:57:09.698Z,19.90
2023-04-11T13:59:36.891Z,19.20
2023-04-11T14:02:04.285Z,16.70
2023-04-11T14:04:31.698Z,15.00
2023-04-11T14:06:58.741Z,15.00
2023-04-11T14:09:25.989Z,15.40
2023-04-11T14:11:52.925Z,14.80
2023-04-11T14:14:19.871Z,15.40
2023-04-11T14:16:46.931Z,16.90
2023-04-11T14:19:14.004Z,18.20
2023-04-11T14:21:41.127Z,17.90
2023-04-11T14:24:08.885Z,16.30
2023-04-11T14:26:36.057Z,16.80
2023-04-11T14:29:02.979Z,16.40
2023-04-11T14:31:30.258Z,15.00
2023-04-11T14:33:57.445Z,15.10
2023-04-11T14:36:24.681Z,15.40
2023-04-11T14:38:51.668Z,15.60
2023-04-11T14:41:19.203Z,15.70
2023-04-11T14:43:46.174Z,16.20
2023-04-11T14:46:13.146Z,16.60
2023-04-11T14:48:40.056Z,16.10
2023-04-11T14:51:07.313Z,15.00
2023-04-11T14:53:34.298Z,13.40
2023-04-11T14:56:06.387Z,12.10
2023-04-11T14:58:34.031Z,11.70
2023-04-11T15:01:01.088Z,10.80
2023-04-11T15:03:28.305Z,9.40
2023-04-11T15:05:55.429Z,10.00
2023-04-11T15:08:22.404Z,10.80
2023-04-11T15:10:53.806Z,11.40
2023-04-11T15:13:22.741Z,12.20
2023-04-11T15:15:49.948Z,13.20
2023-04-11T15:18:23.504Z,14.50
2023-04-11T15:20:52.234Z,15.20
2023-04-11T15:23:20.448Z,13.30
2023-04-11T15:25:59.280Z,11.70
2023-04-11T15:28:31.359Z,10.80
2023-04-11T15:30:59.076Z,10.20
2023-04-11T15:33:27.558Z,9.90
2023-04-11T15:35:55.407Z,9.90
2023-04-11T15:38:23.774Z,9.80
2023-04-11T15:40:58.236Z,9.60
2023-04-11T15:43:25.929Z,9.50
2023-04-11T15:45:53.696Z,9.90
2023-04-11T15:48:20.824Z,10.10
2023-04-11T15:50:47.782Z,11.30
2023-04-11T15:53:14.776Z,13.20
2023-04-11T15:55:43.587Z,15.00
2023-04-11T15:58:10.954Z,16.30
2023-04-11T16:00:42.040Z,16.70
2023-04-11T16:03:10.697Z,17.10
2023-04-11T16:05:40.679Z,17.40
2023-04-11T16:08:08.429Z,16.80
2023-04-11T16:10:35.580Z,15.50
2023-04-11T16:13:03.200Z,15.20
2023-04-11T16:15:30.265Z,14.80
2023-04-11T16:17:57.209Z,14.10
2023-04-11T16:20:24.185Z,14.00
2023-04-11T16:22:51.277Z,13.80
2023-04-11T16:25:20.835Z,13.10
2023-04-11T16:27:48.435Z,13.20
2023-04-11T16:30:16.636Z,13.50
2023-04-11T16:32:43.889Z,13.80
2023-04-11T16:35:11.149Z,13.60
2023-04-11T16:37:38.119Z,13.40
2023-04-11T16:40:11.093Z,13.70
2023-04-11T16:42:39.741Z,13.70
2023-04-11T16:45:09.742Z,13.60
2023-04-11T16:47:37.196Z,13.20
2023-04-11T16:50:05.672Z,13.20
2023-04-11T16:52:33.034Z,13.00
2023-04-11T16:54:59.997Z,12.10
2023-04-11T16:57:27.439Z,11.90
2023-04-11T16:59:54.594Z,11.30
2023-04-11T17:02:21.547Z,10.80
2023-04-11T17:04:48.524Z,10.30
2023-04-11T17:07:16.064Z,9.90
2023-04-11T17:09:43.004Z,9.70
2023-04-11T17:12:10.386Z,9.60
2023-04-11T17:14:37.322Z,9.70
2023-04-11T17:17:04.319Z,10.20
2023-04-11T17:19:31.551Z,10.70
2023-04-11T17:21:58.469Z,11.20
2023-04-11T17:24:25.616Z,11.30
2023-04-11T17:26:53.015Z,11.20
2023-04-11T17:29:20.202Z,11.20
2023-04-11T17:31:47.176Z,10.80
2023-04-11T17:34:14.204Z,10.30
2023-04-11T17:36:42.486Z,9.80
2023-04-11T17:39:16.914Z,9.50
2023-04-11T17:41:47.150Z,9.20
2023-04-11T17:44:14.149Z,9.00
2023-04-11T17:46:41.453Z,8.80
2023-04-11T17:49:08.563Z,8.60
2023-04-11T17:51:43.083Z,8.30
2023-04-11T17:54:15.931Z,8.10
2023-04-11T17:56:42.813Z,7.80
2023-04-11T17:59:11.433Z,7.60
2023-04-11T18:01:38.366Z,7.40
2023-04-11T18:04:09.325Z,7.30
2023-04-11T18:06:36.423Z,7.10
2023-04-11T18:09:05.210Z,7.00
2023-04-11T18:11:32.449Z,6.80
2023-04-11T18:13:59.838Z,6.80
2023-04-11T18:16:26.944Z,6.80
2023-04-11T18:18:53.981Z,6.70
2023-04-11T18:21:21.588Z,6.70
2023-04-11T18:23:48.520Z,6.70
2023-04-11T18:26:15.450Z,6.60
2023-04-11T18:28:42.393Z,6.40
2023-04-11T18:31:10.224Z,6.30
2023-04-11T18:33:40.857Z,6.10
2023-04-11T18:36:10.131Z,6.00
2023-04-11T18:38:37.068Z,5.80
2023-04-11T18:41:07.160Z,5.70
2023-04-11T18:43:34.871Z,5.60
2023-04-11T18:46:02.195Z,5.50
2023-04-11T18:48:29.266Z,5.40
2023-04-11T18:51:00.852Z,5.30
2023-04-11T18:53:29.743Z,5.20
2023-04-11T18:55:57.643Z,5.10
2023-04-11T18:58:26.067Z,5.00
2023-04-11T19:00:54.247Z,5.00
2023-04-11T19:03:23.479Z,5.00
2023-04-11T19:05:51.658Z,5.00
2023-04-11T19:08:18.844Z,5.00
2023-04-11T19:10:46.040Z,4.90
2023-04-11T19:13:13.010Z,4.70
2023-04-11T19:15:41.858Z,4.50
2023-04-11T19:18:10.215Z,4.40
2023-04-11T19:20:39.005Z,4.20
2023-04-11T19:23:06.119Z,4.10
2023-04-11T19:25:33.167Z,4.00
2023-04-11T19:28:00.603Z,3.90
2023-04-11T19:30:28.469Z,4.00
2023-04-11T19:32:56.163Z,4.10
2023-04-11T19:35:24.231Z,4.20
2023-04-11T19:37:51.264Z,4.10
2023-04-11T19:40:18.722Z,4.10
2023-04-11T19:42:45.829Z,3.90
2023-04-11T19:45:12.831Z,3.80
2023-04-11T19:47:41.225Z,3.70
2023-04-11T19:50:13.132Z,3.70
2023-04-11T19:52:42.557Z,3.60
2023-04-11T19:55:12.034Z,3.50
2023-04-11T19:57:40.014Z,3.40
2023-04-11T20:00:13.968Z,3.40
2023-04-11T20:02:46.035Z,3.30
2023-04-11T20:05:19.589Z,3.30
2023-04-11T20:07:47.772Z,3.20
2023-04-11T20:10:16.659Z,3.20
2023-04-11T20:12:43.615Z,3.10
2023-04-11T20:15:11.359Z,3.20
2023-04-11T20:17:38.403Z,3.20
2023-04-11T20:20:08.309Z,3.20
2023-04-11T20:22:37.960Z,3.20
2023-04-11T20:25:07.845Z,3.20
2023-04-11T20:27:34.808Z,3.10
2023-04-11T20:30:06.714Z,3.00
2023-04-11T20:32:33.822Z,3.00
2023-04-11T20:35:01.659Z,3.00
2023-04-11T20:37:31.881Z,3.10
2023-04-11T20:39:59.080Z,3.20
2023-04-11T20:42:27.824Z,3.20
2023-04-11T20:45:13.779Z,3.20
2023-04-11T20:47:45.937Z,3.30
2023-04-11T20:50:15.759Z,3.20
2023-04-11T20:52:46.652Z,3.10
2023-04-11T20:55:16.836Z,3.00
2023-04-11T20:57:44.648Z,3.10
2023-04-11T21:00:14.903Z,3.10
2023-04-11T21:02:45.500Z,3.10
2023-04-11T21:05:14.903Z,2.90
2023-04-11T21:07:42.945Z,2.70
2023-04-11T21:10:11.954Z,2.60
2023-04-11T21:12:39.294Z,2.50
2023-04-11T21:15:07.556Z,2.50
2023-04-11T21:17:35.827Z,2.40
2023-04-11T21:20:09.964Z,2.30
2023-04-11T21:22:37.199Z,2.20
2023-04-11T21:25:04.784Z,2.10
2023-04-11T21:27:31.659Z,2.20
2023-04-11T21:29:58.714Z,2.20
2023-04-11T21:32:25.841Z,2.20
2023-04-11T21:34:52.740Z,2.20
2023-04-11T21:37:19.804Z,2.10
2023-04-11T21:39:46.719Z,2.30
2023-04-11T21:42:13.644Z,2.20
2023-04-11T21:44:40.609Z,2.10
2023-04-11T21:47:07.629Z,2.10
2023-04-11T21:49:34.492Z,2.10
2023-04-11T21:52:01.450Z,2.10
2023-04-11T21:54:28.436Z,2.00
2023-04-11T21:56:57.149Z,1.90
2023-04-11T21:59:24.005Z,1.90
2023-04-11T22:01:51.300Z,2.00
2023-04-11T22:04:23.084Z,2.00
2023-04-11T22:06:50.161Z,2.00
2023-04-11T22:09:20.681Z,1.90
2023-04-11T22:11:47.629Z,2.00
2023-04-11T22:14:16.286Z,1.90
2023-04-11T22:16:48.989Z,1.70
2023-04-11T22:19:17.917Z,1.80
2023-04-11T22:21:50.415Z,1.90
2023-04-11T22:24:17.342Z,2.00
2023-04-11T22:26:48.550Z,2.10
2023-04-11T22:29:18.174Z,2.10
2023-04-11T22:31:47.585Z,2.20
2023-04-11T22:34:14.687Z,2.20
2023-04-11T22:36:41.567Z,2.20
2023-04-11T22:39:09.293Z,2.00
2023-04-11T22:41:38.506Z,2.00
2023-04-11T22:44:06.410Z,2.00
2023-04-11T22:46:39.170Z,1.90
2023-04-11T22:49:09.445Z,1.90
2023-04-11T22:51:37.943Z,2.00
2023-04-11T22:54:05.386Z,2.10
2023-04-11T22:56:32.366Z,2.10
2023-04-11T22:58:59.247Z,2.20
2023-04-11T23:01:26.149Z,2.30
2023-04-11T23:03:53.138Z,2.30
2023-04-11T23:06:20.180Z,2.30
2023-04-11T23:08:47.391Z,2.20
2023-04-11T23:11:14.305Z,2.10
2023-04-11T23:13:42.018Z,2.10
2023-04-11T23:16:09.252Z,2.20
2023-04-11T23:18:36.281Z,2.20
2023-04-11T23:21:04.723Z,2.20
2023-04-11T23:23:31.673Z,2.20
2023-04-11T23:25:58.596Z,2.20
2023-04-11T23:28:25.636Z,2.20
2023-04-11T23:30:52.619Z,2.20
2023-04-11T23:33:21.954Z,2.20
2023-04-11T23:35:48.972Z,2.20
2023-04-11T23:38:16.261Z,2.20
2023-04-11T23:40:44.028Z,2.20
2023-04-11T23:43:10.936Z,2.20
2023-04-11T23:45:37.948Z,2.20
2023-04-11T23:48:05.113Z,2.20
2023-04-11T23:50:32.055Z,2.20
2023-04-11T23:52:59.001Z,2.10
2023-04-11T23:55:26.540Z,2.10
2023-04-11T23:57:53.958Z,2.20
